Time,TemperatureF,DewpointF,PressureIn,WindDirection,WindDirectionDegrees,WindSpeedMPH,WindSpeedGustMPH,Humidity,HourlyPrecipIn,Conditions,Clouds,dailyrainin,SoftwareType,DateUTC
2013-03-23 00:00:00,77.4,75.2,29.71,SE,135,1.3,1.3,93,0.37,,,0.00,VWS V14.01,2013-03-22 14:00:00,
2013-03-23 00:05:00,77.4,75.2,29.68,South,180,0.0,0.0,93,0.37,,,0.00,VWS V14.01,2013-03-22 14:05:00,
2013-03-23 00:10:00,77.2,75.0,29.68,SSE,158,1.1,1.1,93,0.29,,,0.00,VWS V14.01,2013-03-22 14:10:00,
2013-03-23 00:15:00,77.2,75.0,29.68,SE,135,0.0,0.0,93,0.21,,,0.00,VWS V14.01,2013-03-22 14:15:00,
2013-03-23 00:20:00,77.0,74.8,29.68,South,180,0.0,0.0,93,0.08,,,0.00,VWS V14.01,2013-03-22 14:20:00,
2013-03-23 00:25:00,77.2,75.0,29.68,South,180,2.9,2.9,93,0.04,,,0.00,VWS V14.01,2013-03-22 14:25:00,
2013-03-23 00:31:00,76.8,75.0,29.68,South,180,3.4,3.4,94,0.04,,,0.00,VWS V14.01,2013-03-22 14:31:00,
2013-03-23 00:36:00,76.8,75.0,29.68,SSE,158,4.3,4.3,94,0.04,,,0.00,VWS V14.01,2013-03-22 14:36:00,
2013-03-23 00:41:00,76.8,75.0,29.68,SE,135,3.8,3.8,94,0.04,,,0.00,VWS V14.01,2013-03-22 14:41:00,
2013-03-23 00:46:00,76.8,75.0,29.68,SE,135,1.6,1.6,94,0.04,,,0.00,VWS V14.01,2013-03-22 14:46:00,
2013-03-23 00:51:00,76.6,74.8,29.68,SE,135,3.1,4.7,94,0.00,,,0.00,VWS V14.01,2013-03-22 14:51:00,
2013-03-23 00:56:00,76.6,74.8,29.68,SSE,158,2.7,2.7,94,0.00,,,0.00,VWS V14.01,2013-03-22 14:56:00,
2013-03-23 01:02:00,76.6,74.8,29.68,SE,135,2.9,2.9,94,0.00,,,0.00,VWS V14.01,2013-03-22 15:02:00,
2013-03-23 01:07:00,76.6,74.8,29.68,East,90,3.1,3.8,94,0.00,,,0.00,VWS V14.01,2013-03-22 15:07:00,
2013-03-23 01:13:00,76.6,74.8,29.68,ESE,112,0.0,0.0,94,0.00,,,0.00,VWS V14.01,2013-03-22 15:13:00,
2013-03-23 01:18:00,76.6,74.8,29.68,East,90,2.5,4.3,94,0.00,,,0.00,VWS V14.01,2013-03-22 15:18:00,
2013-03-23 01:23:00,76.6,74.8,29.65,ESE,112,0.0,0.0,94,0.00,,,0.00,VWS V14.01,2013-03-22 15:23:00,
2013-03-23 01:28:00,76.6,74.8,29.65,SE,135,0.0,0.0,94,0.00,,,0.00,VWS V14.01,2013-03-22 15:28:00,
2013-03-23 01:33:00,76.6,74.8,29.65,SE,135,0.0,0.0,94,0.00,,,0.00,VWS V14.01,2013-03-22 15:33:00,
2013-03-23 01:38:00,76.6,74.8,29.65,SE,135,0.0,0.0,94,0.00,,,0.00,VWS V14.01,2013-03-22 15:38:00,
2013-03-23 01:43:00,76.6,74.8,29.65,WSW,248,1.1,1.1,94,0.00,,,0.00,VWS V14.01,2013-03-22 15:43:00,
2013-03-23 01:48:00,76.8,75.0,29.65,WSW,248,1.1,1.1,94,0.00,,,0.00,VWS V14.01,2013-03-22 15:48:00,
2013-03-23 01:53:00,76.8,75.0,29.65,WSW,248,1.1,1.1,94,0.00,,,0.00,VWS V14.01,2013-03-22 15:53:00,
2013-03-23 01:58:00,76.8,75.0,29.65,WSW,248,1.1,1.1,94,0.00,,,0.00,VWS V14.01,2013-03-22 15:58:00,
2013-03-23 02:04:00,76.8,75.0,29.65,WSW,248,1.1,1.1,94,0.00,,,0.00,VWS V14.01,2013-03-22 16:04:00,
2013-03-23 02:09:00,76.8,75.0,29.65,WSW,248,1.1,1.1,94,0.12,,,0.12,VWS V14.01,2013-03-22 16:09:00,
2013-03-23 02:14:00,76.8,75.3,29.65,SW,225,0.0,2.5,95,0.12,,,0.12,VWS V14.01,2013-03-22 16:14:00,
2013-03-23 02:19:00,76.8,75.3,29.65,SW,225,0.0,0.0,95,0.12,,,0.12,VWS V14.01,2013-03-22 16:19:00,
2013-03-23 02:24:00,77.0,75.1,29.62,South,180,0.0,0.0,94,0.12,,,0.12,VWS V14.01,2013-03-22 16:24:00,
2013-03-23 02:29:00,77.0,75.1,29.62,South,180,0.0,0.0,94,0.12,,,0.12,VWS V14.01,2013-03-22 16:29:00,
2013-03-23 02:34:00,77.0,75.1,29.62,SSE,158,2.7,2.7,94,0.12,,,0.12,VWS V14.01,2013-03-22 16:34:00,
2013-03-23 02:39:00,77.0,75.1,29.62,SSE,158,1.3,1.3,94,0.12,,,0.12,VWS V14.01,2013-03-22 16:39:00,
2013-03-23 02:44:00,77.0,75.1,29.62,SSW,202,3.6,3.6,94,0.12,,,0.12,VWS V14.01,2013-03-22 16:44:00,
2013-03-23 02:49:00,77.2,75.3,29.62,SSW,202,3.1,3.1,94,0.12,,,0.12,VWS V14.01,2013-03-22 16:49:00,
2013-03-23 02:54:00,77.4,75.5,29.62,SSW,202,3.1,3.1,94,0.12,,,0.12,VWS V14.01,2013-03-22 16:54:00,
2013-03-23 02:59:00,77.4,75.5,29.62,SSW,202,3.1,3.1,94,0.12,,,0.12,VWS V14.01,2013-03-22 16:59:00,
2013-03-23 03:05:00,77.4,75.5,29.62,SSW,202,3.1,3.1,94,0.12,,,0.12,VWS V14.01,2013-03-22 17:05:00,
2013-03-23 03:10:00,77.4,75.5,29.59,SSW,202,3.1,3.1,94,0.00,,,0.12,VWS V14.01,2013-03-22 17:10:00,
2013-03-23 03:15:00,77.4,75.5,29.59,SSW,202,3.1,3.1,94,0.00,,,0.12,VWS V14.01,2013-03-22 17:15:00,
2013-03-23 03:20:00,77.5,75.7,29.59,SSW,202,2.2,2.2,94,0.00,,,0.12,VWS V14.01,2013-03-22 17:20:00,
2013-03-23 03:25:00,77.5,75.4,29.59,South,180,7.8,7.8,93,0.00,,,0.12,VWS V14.01,2013-03-22 17:25:00,
2013-03-23 03:30:00,77.7,75.5,29.59,SW,225,9.8,9.8,93,0.00,,,0.12,VWS V14.01,2013-03-22 17:30:00,
2013-03-23 03:36:00,78.1,75.9,29.59,SSE,158,7.6,7.6,93,0.00,,,0.12,VWS V14.01,2013-03-22 17:36:00,
2013-03-23 03:41:00,77.9,75.7,29.59,SSE,158,3.1,3.1,93,0.00,,,0.12,VWS V14.01,2013-03-22 17:41:00,
2013-03-23 03:46:00,77.9,75.7,29.59,SSE,158,3.1,3.1,93,0.00,,,0.12,VWS V14.01,2013-03-22 17:46:00,
2013-03-23 03:51:00,77.9,75.7,29.59,SSE,158,3.1,3.1,93,0.00,,,0.12,VWS V14.01,2013-03-22 17:51:00,
2013-03-23 03:56:00,77.7,75.5,29.59,SSE,158,3.1,3.1,93,0.00,,,0.12,VWS V14.01,2013-03-22 17:56:00,
2013-03-23 04:01:00,77.9,75.4,29.59,SSE,158,3.1,3.1,92,0.00,,,0.12,VWS V14.01,2013-03-22 18:01:00,
2013-03-23 04:06:00,78.1,75.6,29.62,SSE,158,3.1,3.1,92,0.00,,,0.12,VWS V14.01,2013-03-22 18:06:00,
2013-03-23 04:11:00,78.1,75.6,29.62,SSE,158,3.1,3.1,92,0.00,,,0.12,VWS V14.01,2013-03-22 18:11:00,
2013-03-23 04:16:00,78.1,75.6,29.62,SSE,158,3.1,3.1,92,0.00,,,0.12,VWS V14.01,2013-03-22 18:16:00,
2013-03-23 04:21:00,78.1,75.2,29.62,SSE,158,3.1,3.1,91,0.00,,,0.12,VWS V14.01,2013-03-22 18:21:00,
2013-03-23 04:26:00,77.9,75.4,29.62,SSW,202,3.1,3.1,92,0.00,,,0.12,VWS V14.01,2013-03-22 18:26:00,
2013-03-23 04:32:00,77.9,75.4,29.62,ESE,112,2.9,2.9,92,0.00,,,0.12,VWS V14.01,2013-03-22 18:32:00,
2013-03-23 04:37:00,78.1,75.6,29.62,SSW,202,5.8,5.8,92,0.00,,,0.12,VWS V14.01,2013-03-22 18:37:00,
2013-03-23 04:42:00,78.3,75.4,29.62,SE,135,4.9,4.9,91,0.00,,,0.12,VWS V14.01,2013-03-22 18:42:00,
2013-03-23 04:47:00,78.1,75.2,29.62,SSE,158,5.8,5.8,91,0.00,,,0.12,VWS V14.01,2013-03-22 18:47:00,
2013-03-23 04:52:00,78.1,75.6,29.62,SSE,158,0.0,0.0,92,0.00,,,0.12,VWS V14.01,2013-03-22 18:52:00,
2013-03-23 04:57:00,78.3,75.4,29.62,SSE,158,0.0,0.0,91,0.00,,,0.12,VWS V14.01,2013-03-22 18:57:00,
2013-03-23 05:02:00,78.1,75.2,29.62,East,90,0.0,0.9,91,0.00,,,0.12,VWS V14.01,2013-03-22 19:02:00,
2013-03-23 05:07:00,78.1,75.6,29.62,South,180,2.7,2.7,92,0.00,,,0.12,VWS V14.01,2013-03-22 19:07:00,
2013-03-23 05:12:00,78.1,75.6,29.62,South,180,1.6,1.6,92,0.00,,,0.12,VWS V14.01,2013-03-22 19:12:00,
2013-03-23 05:17:00,77.9,75.4,29.62,SSE,158,4.0,6.3,92,0.00,,,0.12,VWS V14.01,2013-03-22 19:17:00,
2013-03-23 05:22:00,77.7,75.2,29.62,SE,135,4.3,4.3,92,0.00,,,0.12,VWS V14.01,2013-03-22 19:22:00,
2013-03-23 05:27:00,77.9,75.4,29.62,WNW,292,3.1,3.1,92,0.00,,,0.12,VWS V14.01,2013-03-22 19:27:00,
2013-03-23 05:33:00,77.9,75.4,29.62,WSW,248,4.7,4.7,92,0.00,,,0.12,VWS V14.01,2013-03-22 19:33:00,
2013-03-23 05:38:00,78.1,75.6,29.62,SSW,202,2.9,2.9,92,0.00,,,0.12,VWS V14.01,2013-03-22 19:38:00,
2013-03-23 05:43:00,78.1,75.6,29.62,SSW,202,2.9,2.9,92,0.00,,,0.12,VWS V14.01,2013-03-22 19:43:00,
2013-03-23 05:48:00,78.1,75.6,29.62,South,180,4.7,4.7,92,0.00,,,0.12,VWS V14.01,2013-03-22 19:48:00,
2013-03-23 05:53:00,78.3,75.8,29.62,South,180,3.6,8.7,92,0.00,,,0.12,VWS V14.01,2013-03-22 19:53:00,
2013-03-23 05:58:00,78.3,75.8,29.62,South,180,4.0,4.0,92,0.00,,,0.12,VWS V14.01,2013-03-22 19:58:00,
2013-03-23 06:03:00,78.4,75.9,29.62,SSE,158,5.4,5.4,92,0.00,,,0.12,VWS V14.01,2013-03-22 20:03:00,
2013-03-23 06:08:00,78.3,75.8,29.65,SSE,158,5.4,5.4,92,0.05,,,0.17,VWS V14.01,2013-03-22 20:08:00,
2013-03-23 06:13:00,78.3,75.8,29.65,SSW,202,3.4,3.4,92,0.09,,,0.21,VWS V14.01,2013-03-22 20:13:00,
2013-03-23 06:19:00,77.9,75.4,29.65,SE,135,1.6,1.6,92,0.09,,,0.21,VWS V14.01,2013-03-22 20:19:00,
2013-03-23 06:24:00,77.9,75.4,29.65,SW,225,2.7,2.7,92,0.09,,,0.21,VWS V14.01,2013-03-22 20:24:00,
2013-03-23 06:29:00,78.1,75.9,29.65,NE,45,1.3,1.3,93,0.09,,,0.21,VWS V14.01,2013-03-22 20:29:00,
2013-03-23 06:34:00,77.9,75.7,29.65,NE,45,1.3,1.3,93,0.09,,,0.21,VWS V14.01,2013-03-22 20:34:00,
2013-03-23 06:39:00,78.1,75.9,29.65,SE,135,1.1,4.0,93,0.09,,,0.21,VWS V14.01,2013-03-22 20:39:00,
2013-03-23 06:44:00,78.1,75.9,29.65,South,180,2.0,2.0,93,0.09,,,0.21,VWS V14.01,2013-03-22 20:44:00,
2013-03-23 06:49:00,78.1,75.9,29.65,SSE,158,4.0,4.0,93,0.09,,,0.21,VWS V14.01,2013-03-22 20:49:00,
2013-03-23 06:54:00,78.1,75.9,29.65,SSE,158,2.0,2.0,93,0.09,,,0.21,VWS V14.01,2013-03-22 20:54:00,
2013-03-23 06:59:00,77.9,75.7,29.65,South,180,0.9,0.9,93,0.09,,,0.21,VWS V14.01,2013-03-22 20:59:00,
2013-03-23 07:04:00,78.1,75.9,29.65,SE,135,6.3,6.3,93,0.09,,,0.21,VWS V14.01,2013-03-22 21:04:00,
2013-03-23 07:09:00,78.4,76.2,29.65,South,180,3.1,4.0,93,0.04,,,0.21,VWS V14.01,2013-03-22 21:09:00,
2013-03-23 07:15:00,78.4,75.9,29.65,WSW,248,2.7,2.7,92,0.00,,,0.21,VWS V14.01,2013-03-22 21:15:00,
2013-03-23 07:20:00,78.4,75.9,29.68,South,180,4.9,4.9,92,0.00,,,0.21,VWS V14.01,2013-03-22 21:20:00,
2013-03-23 07:25:00,78.4,75.9,29.68,SSW,202,4.3,4.3,92,0.00,,,0.21,VWS V14.01,2013-03-22 21:25:00,
2013-03-23 07:30:00,78.6,76.1,29.68,South,180,4.7,4.7,92,0.00,,,0.21,VWS V14.01,2013-03-22 21:30:00,
2013-03-23 07:35:00,78.6,76.1,29.68,WSW,248,3.6,3.6,92,0.00,,,0.21,VWS V14.01,2013-03-22 21:35:00,
2013-03-23 07:40:00,78.6,76.1,29.68,SSE,158,0.0,0.0,92,0.00,,,0.21,VWS V14.01,2013-03-22 21:40:00,
2013-03-23 07:45:00,78.8,76.3,29.68,South,180,0.0,0.0,92,0.00,,,0.21,VWS V14.01,2013-03-22 21:45:00,
2013-03-23 07:50:00,78.8,76.3,29.68,SW,225,0.0,0.0,92,0.00,,,0.21,VWS V14.01,2013-03-22 21:50:00,
2013-03-23 07:55:00,79.0,76.5,29.68,South,180,3.6,3.6,92,0.00,,,0.21,VWS V14.01,2013-03-22 21:55:00,
2013-03-23 08:00:00,79.2,76.6,29.68,SSE,158,3.8,3.8,92,0.00,,,0.21,VWS V14.01,2013-03-22 22:00:00,
2013-03-23 08:06:00,79.2,76.6,29.68,SE,135,4.0,4.0,92,0.00,,,0.21,VWS V14.01,2013-03-22 22:06:00,
2013-03-23 08:11:00,79.3,76.5,29.68,ENE,68,3.1,3.4,91,0.00,,,0.21,VWS V14.01,2013-03-22 22:11:00,
2013-03-23 08:16:00,79.0,76.5,29.68,SSE,158,1.1,1.1,92,0.04,,,0.25,VWS V14.01,2013-03-22 22:16:00,
2013-03-23 08:21:00,78.6,76.1,29.68,SE,135,4.9,4.9,92,0.04,,,0.25,VWS V14.01,2013-03-22 22:21:00,
2013-03-23 08:26:00,78.6,76.1,29.68,SSW,202,0.0,0.0,92,0.04,,,0.25,VWS V14.01,2013-03-22 22:26:00,
2013-03-23 08:32:00,78.8,76.3,29.68,SSE,158,3.8,3.8,92,0.04,,,0.25,VWS V14.01,2013-03-22 22:32:00,
2013-03-23 08:37:00,78.8,75.9,29.71,SSW,202,5.6,5.6,91,0.04,,,0.25,VWS V14.01,2013-03-22 22:37:00,
2013-03-23 08:43:00,79.0,76.1,29.71,South,180,0.0,0.0,91,0.04,,,0.25,VWS V14.01,2013-03-22 22:43:00,
2013-03-23 08:48:00,79.2,76.6,29.71,SE,135,0.9,0.9,92,0.04,,,0.25,VWS V14.01,2013-03-22 22:48:00,
2013-03-23 08:53:00,79.2,76.6,29.71,SSE,158,4.3,4.3,92,0.04,,,0.25,VWS V14.01,2013-03-22 22:53:00,
2013-03-23 08:58:00,79.5,77.0,29.71,East,90,0.9,0.9,92,0.04,,,0.25,VWS V14.01,2013-03-22 22:58:00,
2013-03-23 09:03:00,79.5,77.0,29.71,West,270,1.1,1.1,92,0.04,,,0.25,VWS V14.01,2013-03-22 23:03:00,
2013-03-23 09:08:00,79.5,77.0,29.71,SW,225,3.1,3.1,92,0.04,,,0.25,VWS V14.01,2013-03-22 23:08:00,
2013-03-23 09:13:00,79.5,76.7,29.71,SSW,202,3.4,3.4,91,0.04,,,0.25,VWS V14.01,2013-03-22 23:13:00,
2013-03-23 09:18:00,79.5,77.0,29.71,South,180,0.0,0.0,92,0.00,,,0.25,VWS V14.01,2013-03-22 23:18:00,
2013-03-23 09:23:00,79.5,77.0,29.71,North,360,3.4,3.4,92,0.00,,,0.25,VWS V14.01,2013-03-22 23:23:00,
2013-03-23 09:28:00,79.5,77.0,29.71,ENE,68,3.8,5.4,92,0.00,,,0.25,VWS V14.01,2013-03-22 23:28:00,
2013-03-23 09:33:00,79.5,77.0,29.71,NNE,22,2.5,3.4,92,0.00,,,0.25,VWS V14.01,2013-03-22 23:33:00,
2013-03-23 09:39:00,79.5,77.0,29.71,East,90,2.5,2.5,92,0.00,,,0.25,VWS V14.01,2013-03-22 23:39:00,
2013-03-23 09:44:00,79.0,76.8,29.71,ENE,68,4.3,4.3,93,0.17,,,0.42,VWS V14.01,2013-03-22 23:44:00,
2013-03-23 09:49:00,79.0,76.8,29.71,ENE,68,4.3,4.3,93,0.29,,,0.54,VWS V14.01,2013-03-22 23:49:00,
2013-03-23 09:54:00,78.6,76.4,29.74,NW,315,0.0,2.5,93,0.37,,,0.62,VWS V14.01,2013-03-22 23:54:00,
2013-03-23 09:59:00,78.4,76.2,29.74,SSW,202,3.4,3.4,93,0.41,,,0.66,VWS V14.01,2013-03-22 23:59:00,
2013-03-23 10:04:00,78.6,76.4,29.74,SSW,202,3.4,3.4,93,0.41,,,0.66,VWS V14.01,2013-03-23 00:04:00,
2013-03-23 10:09:00,78.8,76.6,29.71,SE,135,0.0,0.0,93,0.41,,,0.66,VWS V14.01,2013-03-23 00:09:00,
2013-03-23 10:14:00,78.8,76.6,29.71,SE,135,0.0,0.0,93,0.41,,,0.66,VWS V14.01,2013-03-23 00:14:00,
2013-03-23 10:19:00,78.8,76.6,29.71,SE,135,0.0,0.0,93,0.46,,,0.71,VWS V14.01,2013-03-23 00:19:00,
2013-03-23 10:25:00,78.8,76.6,29.71,SE,135,0.0,0.0,93,0.46,,,0.71,VWS V14.01,2013-03-23 00:25:00,
2013-03-23 10:30:00,78.8,76.6,29.71,SW,225,0.0,0.0,93,0.46,,,0.71,VWS V14.01,2013-03-23 00:30:00,
2013-03-23 10:35:00,78.6,76.4,29.74,SW,225,3.6,3.6,93,0.46,,,0.71,VWS V14.01,2013-03-23 00:35:00,
2013-03-23 10:40:00,78.6,76.4,29.74,SSW,202,1.3,3.6,93,0.50,,,0.75,VWS V14.01,2013-03-23 00:40:00,
2013-03-23 10:45:00,78.6,76.8,29.74,SE,135,2.0,2.0,94,0.33,,,0.75,VWS V14.01,2013-03-23 00:45:00,
2013-03-23 10:50:00,78.8,76.6,29.71,SE,135,2.0,2.0,93,0.25,,,0.79,VWS V14.01,2013-03-23 00:50:00,
2013-03-23 10:55:00,78.6,76.8,29.71,SE,135,3.1,3.1,94,0.17,,,0.83,VWS V14.01,2013-03-23 00:55:00,
2013-03-23 11:01:00,78.6,76.4,29.71,SE,135,3.1,3.1,93,0.34,,,1.00,VWS V14.01,2013-03-23 01:01:00,
2013-03-23 11:06:00,78.6,76.4,29.71,SE,135,3.1,3.1,93,0.46,,,1.12,VWS V14.01,2013-03-23 01:06:00,
2013-03-23 11:11:00,78.6,76.4,29.71,SE,135,3.1,3.1,93,0.50,,,1.16,VWS V14.01,2013-03-23 01:11:00,
2013-03-23 11:16:00,78.6,76.8,29.71,SE,135,3.1,3.1,94,0.50,,,1.16,VWS V14.01,2013-03-23 01:16:00,
2013-03-23 11:21:00,79.0,76.8,29.68,SE,135,3.1,3.1,93,0.45,,,1.16,VWS V14.01,2013-03-23 01:21:00,
2013-03-23 11:26:00,79.2,77.0,29.68,SE,135,3.1,3.1,93,0.45,,,1.16,VWS V14.01,2013-03-23 01:26:00,
2013-03-23 11:31:00,79.2,77.0,29.68,SE,135,3.1,3.1,93,0.45,,,1.16,VWS V14.01,2013-03-23 01:31:00,
2013-03-23 11:37:00,79.2,77.0,29.68,SE,135,3.1,3.1,93,0.41,,,1.16,VWS V14.01,2013-03-23 01:37:00,
2013-03-23 11:42:00,79.3,77.1,29.68,NNW,338,6.0,6.0,93,0.41,,,1.16,VWS V14.01,2013-03-23 01:42:00,
2013-03-23 11:47:00,79.3,77.1,29.68,NNW,338,6.0,6.0,93,0.37,,,1.16,VWS V14.01,2013-03-23 01:47:00,
2013-03-23 11:52:00,79.2,77.0,29.68,NNW,338,6.0,6.0,93,0.37,,,1.16,VWS V14.01,2013-03-23 01:52:00,
2013-03-23 11:57:00,79.2,76.6,29.68,East,90,4.0,4.0,92,0.37,,,1.20,VWS V14.01,2013-03-23 01:57:00,
2013-03-23 12:02:00,79.0,76.8,29.68,SW,225,0.0,0.0,93,0.25,,,1.25,VWS V14.01,2013-03-23 02:02:00,
2013-03-23 12:07:00,78.8,76.6,29.68,NE,45,0.0,2.5,93,0.13,,,1.25,VWS V14.01,2013-03-23 02:07:00,
2013-03-23 12:12:00,78.8,76.6,29.68,East,90,2.0,3.4,93,0.13,,,1.29,VWS V14.01,2013-03-23 02:12:00,
2013-03-23 12:17:00,78.8,76.6,29.68,SW,225,8.1,8.1,93,0.13,,,1.29,VWS V14.01,2013-03-23 02:17:00,
2013-03-23 12:22:00,79.0,76.5,29.68,SE,135,3.1,3.4,92,0.13,,,1.29,VWS V14.01,2013-03-23 02:22:00,
2013-03-23 12:28:00,78.8,76.3,29.68,ESE,112,2.2,2.2,92,0.13,,,1.29,VWS V14.01,2013-03-23 02:28:00,
2013-03-23 12:33:00,79.0,76.5,29.68,SSE,158,4.3,4.3,92,0.13,,,1.29,VWS V14.01,2013-03-23 02:33:00,
2013-03-23 12:38:00,79.0,76.5,29.68,SE,135,4.0,4.9,92,0.13,,,1.29,VWS V14.01,2013-03-23 02:38:00,
2013-03-23 12:43:00,78.8,76.3,29.68,South,180,4.7,4.7,92,0.13,,,1.29,VWS V14.01,2013-03-23 02:43:00,
2013-03-23 12:48:00,79.0,76.5,29.68,SSE,158,5.6,5.6,92,0.13,,,1.29,VWS V14.01,2013-03-23 02:48:00,
2013-03-23 12:53:00,78.8,76.3,29.68,SE,135,5.4,5.4,92,0.13,,,1.29,VWS V14.01,2013-03-23 02:53:00,
2013-03-23 12:58:00,78.4,75.9,29.68,SSW,202,0.0,0.0,92,0.13,,,1.33,VWS V14.01,2013-03-23 02:58:00,
2013-03-23 13:03:00,78.3,76.1,29.68,SSW,202,4.9,4.9,93,0.16,,,1.41,VWS V14.01,2013-03-23 03:03:00,
2013-03-23 13:08:00,78.4,76.2,29.68,SSW,202,3.8,3.8,93,0.16,,,1.41,VWS V14.01,2013-03-23 03:08:00,
2013-03-23 13:13:00,78.4,75.9,29.68,NNE,22,2.7,2.7,92,0.12,,,1.41,VWS V14.01,2013-03-23 03:13:00,
2013-03-23 13:18:00,78.4,76.2,29.68,SSE,158,1.1,1.1,93,0.12,,,1.41,VWS V14.01,2013-03-23 03:18:00,
2013-03-23 13:24:00,78.4,76.2,29.68,SSW,202,1.6,1.6,93,0.12,,,1.41,VWS V14.01,2013-03-23 03:24:00,
2013-03-23 13:29:00,78.6,76.4,29.68,South,180,1.6,1.6,93,0.12,,,1.41,VWS V14.01,2013-03-23 03:29:00,
2013-03-23 13:34:00,78.6,76.4,29.68,SSW,202,2.7,2.7,93,0.12,,,1.41,VWS V14.01,2013-03-23 03:34:00,
2013-03-23 13:39:00,78.6,76.4,29.65,SSE,158,3.4,6.0,93,0.12,,,1.41,VWS V14.01,2013-03-23 03:39:00,
2013-03-23 13:44:00,78.8,76.6,29.65,NW,315,3.1,6.0,93,0.12,,,1.41,VWS V14.01,2013-03-23 03:44:00,
2013-03-23 13:49:00,79.0,76.5,29.65,SSW,202,3.8,3.8,92,0.12,,,1.41,VWS V14.01,2013-03-23 03:49:00,
2013-03-23 13:54:00,79.0,76.5,29.65,SE,135,3.6,3.6,92,0.12,,,1.41,VWS V14.01,2013-03-23 03:54:00,
2013-03-23 13:59:00,79.0,76.5,29.65,South,180,1.3,1.3,92,0.08,,,1.41,VWS V14.01,2013-03-23 03:59:00,
2013-03-23 14:00:00,79.0,76.5,29.65,SE,135,2.2,2.2,92,0.08,,,1.41,VWS V14.01,2013-03-23 04:00:00,
2013-03-23 14:01:00,79.0,76.5,29.65,South,180,0.9,2.2,92,0.08,,,1.41,VWS V14.01,2013-03-23 04:01:00,
2013-03-23 14:02:00,78.8,76.3,29.65,SSE,158,1.6,1.6,92,0.08,,,1.41,VWS V14.01,2013-03-23 04:02:00,
2013-03-23 14:07:00,79.0,76.5,29.65,SSW,202,2.9,3.8,92,0.00,,,1.41,VWS V14.01,2013-03-23 04:07:00,
2013-03-23 14:13:00,79.2,76.6,29.65,SE,135,3.8,3.8,92,0.00,,,1.41,VWS V14.01,2013-03-23 04:13:00,
2013-03-23 14:18:00,79.0,76.5,29.65,SW,225,3.6,7.2,92,0.00,,,1.41,VWS V14.01,2013-03-23 04:18:00,
2013-03-23 14:23:00,79.0,76.5,29.62,South,180,0.0,1.1,92,0.00,,,1.41,VWS V14.01,2013-03-23 04:23:00,
2013-03-23 14:28:00,79.0,76.8,29.62,SSE,158,3.4,3.4,93,0.00,,,1.41,VWS V14.01,2013-03-23 04:28:00,
2013-03-23 14:33:00,79.3,76.8,29.62,SW,225,5.6,5.6,92,0.00,,,1.41,VWS V14.01,2013-03-23 04:33:00,
2013-03-23 14:38:00,79.5,77.0,29.62,SW,225,5.8,5.8,92,0.00,,,1.41,VWS V14.01,2013-03-23 04:38:00,
2013-03-23 14:43:00,79.7,77.2,29.62,South,180,3.6,3.6,92,0.00,,,1.41,VWS V14.01,2013-03-23 04:43:00,
2013-03-23 14:48:00,79.7,76.8,29.62,WNW,292,0.0,2.2,91,0.00,,,1.41,VWS V14.01,2013-03-23 04:48:00,
2013-03-23 14:53:00,79.7,76.8,29.62,ENE,68,0.0,0.0,91,0.00,,,1.41,VWS V14.01,2013-03-23 04:53:00,
2013-03-23 14:58:00,79.9,77.0,29.62,South,180,3.6,3.6,91,0.00,,,1.41,VWS V14.01,2013-03-23 04:58:00,
2013-03-23 15:03:00,79.9,77.0,29.62,West,270,4.9,4.9,91,0.00,,,1.41,VWS V14.01,2013-03-23 05:03:00,
2013-03-23 15:09:00,80.1,77.2,29.62,SSE,158,5.8,5.8,91,0.00,,,1.41,VWS V14.01,2013-03-23 05:09:00,
2013-03-23 15:14:00,80.1,77.2,29.62,SW,225,2.5,2.5,91,0.00,,,1.41,VWS V14.01,2013-03-23 05:14:00,
2013-03-23 15:19:00,80.4,77.2,29.62,South,180,2.9,2.9,90,0.00,,,1.41,VWS V14.01,2013-03-23 05:19:00,
2013-03-23 15:24:00,80.4,77.2,29.62,WSW,248,5.4,5.6,90,0.00,,,1.41,VWS V14.01,2013-03-23 05:24:00,
2013-03-23 15:29:00,80.6,77.1,29.62,ENE,68,2.7,2.7,89,0.00,,,1.41,VWS V14.01,2013-03-23 05:29:00,
2013-03-23 15:34:00,80.6,77.1,29.62,SE,135,5.8,5.8,89,0.00,,,1.41,VWS V14.01,2013-03-23 05:34:00,
2013-03-23 15:40:00,80.6,77.1,29.62,SE,135,7.6,7.6,89,0.00,,,1.41,VWS V14.01,2013-03-23 05:40:00,
2013-03-23 15:45:00,80.6,77.4,29.62,SE,135,7.6,7.6,90,0.00,,,1.41,VWS V14.01,2013-03-23 05:45:00,
2013-03-23 15:50:00,80.6,77.1,29.62,SE,135,7.6,7.6,89,0.00,,,1.41,VWS V14.01,2013-03-23 05:50:00,
2013-03-23 15:55:00,80.6,77.1,29.62,SE,135,7.6,7.6,89,0.00,,,1.41,VWS V14.01,2013-03-23 05:55:00,
2013-03-23 16:00:00,80.6,77.1,29.62,SE,135,7.6,7.6,89,0.00,,,1.41,VWS V14.01,2013-03-23 06:00:00,
2013-03-23 16:05:00,80.6,77.1,29.62,WNW,292,1.6,1.6,89,0.00,,,1.41,VWS V14.01,2013-03-23 06:05:00,
2013-03-23 16:10:00,80.6,77.1,29.62,South,180,2.0,2.0,89,0.00,,,1.41,VWS V14.01,2013-03-23 06:10:00,
2013-03-23 16:15:00,80.6,77.1,29.62,South,180,2.2,2.2,89,0.00,,,1.41,VWS V14.01,2013-03-23 06:15:00,
2013-03-23 16:20:00,80.6,76.7,29.62,ENE,68,2.0,2.0,88,0.00,,,1.41,VWS V14.01,2013-03-23 06:20:00,
2013-03-23 16:26:00,80.6,76.7,29.62,West,270,3.1,3.1,88,0.00,,,1.41,VWS V14.01,2013-03-23 06:26:00,
2013-03-23 16:31:00,80.6,76.7,29.62,NW,315,3.8,3.8,88,0.00,,,1.41,VWS V14.01,2013-03-23 06:31:00,
2013-03-23 16:36:00,80.8,76.9,29.65,NW,315,3.8,3.8,88,0.00,,,1.41,VWS V14.01,2013-03-23 06:36:00,
2013-03-23 16:41:00,80.6,76.7,29.65,South,180,4.3,5.4,88,0.00,,,1.41,VWS V14.01,2013-03-23 06:41:00,
2013-03-23 16:46:00,80.8,76.9,29.65,NNE,22,0.9,0.9,88,0.00,,,1.41,VWS V14.01,2013-03-23 06:46:00,
2013-03-23 16:51:00,80.6,76.7,29.65,ENE,68,3.4,3.4,88,0.00,,,1.41,VWS V14.01,2013-03-23 06:51:00,
2013-03-23 16:56:00,80.6,76.7,29.65,South,180,4.9,4.9,88,0.00,,,1.41,VWS V14.01,2013-03-23 06:56:00,
2013-03-23 17:01:00,80.2,76.7,29.65,SE,135,2.2,2.2,89,0.04,,,1.45,VWS V14.01,2013-03-23 07:01:00,
2013-03-23 17:07:00,79.5,76.0,29.65,SE,135,2.5,2.5,89,0.13,,,1.54,VWS V14.01,2013-03-23 07:07:00,
2013-03-23 17:12:00,79.5,76.0,29.65,NE,45,3.1,3.8,89,0.13,,,1.54,VWS V14.01,2013-03-23 07:12:00,
2013-03-23 17:17:00,79.3,76.2,29.65,NE,45,2.0,2.7,90,0.13,,,1.54,VWS V14.01,2013-03-23 07:17:00,
2013-03-23 17:22:00,79.2,76.0,29.65,SW,225,4.0,4.0,90,0.13,,,1.54,VWS V14.01,2013-03-23 07:22:00,
2013-03-23 17:27:00,79.2,76.0,29.65,WSW,248,2.2,2.2,90,0.13,,,1.54,VWS V14.01,2013-03-23 07:27:00,
2013-03-23 17:33:00,79.2,76.3,29.65,WSW,248,0.0,0.0,91,0.13,,,1.54,VWS V14.01,2013-03-23 07:33:00,
2013-03-23 17:38:00,79.2,76.3,29.65,East,90,3.6,3.6,91,0.13,,,1.54,VWS V14.01,2013-03-23 07:38:00,
2013-03-23 17:43:00,79.2,76.0,29.65,South,180,2.0,4.7,90,0.13,,,1.54,VWS V14.01,2013-03-23 07:43:00,
2013-03-23 17:48:00,78.8,75.6,29.65,NNE,22,0.0,3.8,90,0.13,,,1.54,VWS V14.01,2013-03-23 07:48:00,
2013-03-23 17:53:00,79.0,75.8,29.65,SE,135,4.3,4.3,90,0.13,,,1.54,VWS V14.01,2013-03-23 07:53:00,
2013-03-23 17:58:00,78.8,75.6,29.65,NNW,338,5.4,5.4,90,0.13,,,1.54,VWS V14.01,2013-03-23 07:58:00,
2013-03-23 18:03:00,79.0,75.8,29.65,NNW,338,0.0,0.0,90,0.05,,,1.54,VWS V14.01,2013-03-23 08:03:00,
2013-03-23 18:08:00,79.0,75.8,29.68,ESE,112,1.1,1.1,90,0.00,,,1.54,VWS V14.01,2013-03-23 08:08:00,
2013-03-23 18:13:00,79.0,75.8,29.68,West,270,2.7,2.7,90,0.00,,,1.54,VWS V14.01,2013-03-23 08:13:00,
2013-03-23 18:19:00,79.2,76.0,29.68,SSW,202,0.0,2.9,90,0.00,,,1.54,VWS V14.01,2013-03-23 08:19:00,
2013-03-23 18:24:00,79.0,75.8,29.65,SE,135,3.4,3.4,90,0.00,,,1.54,VWS V14.01,2013-03-23 08:24:00,
2013-03-23 18:29:00,79.0,75.8,29.65,SSE,158,4.0,4.0,90,0.00,,,1.54,VWS V14.01,2013-03-23 08:29:00,
2013-03-23 18:34:00,78.8,75.6,29.65,SSE,158,4.0,4.0,90,0.00,,,1.54,VWS V14.01,2013-03-23 08:34:00,
2013-03-23 18:39:00,78.6,75.8,29.65,SE,135,2.7,4.7,91,0.00,,,1.54,VWS V14.01,2013-03-23 08:39:00,
2013-03-23 18:44:00,78.4,75.6,29.65,SSW,202,4.3,4.3,91,0.00,,,1.54,VWS V14.01,2013-03-23 08:44:00,
2013-03-23 18:49:00,78.6,75.8,29.65,SSW,202,2.7,3.1,91,0.00,,,1.54,VWS V14.01,2013-03-23 08:49:00,
2013-03-23 18:54:00,78.6,75.4,29.68,South,180,0.0,0.0,90,0.00,,,1.54,VWS V14.01,2013-03-23 08:54:00,
2013-03-23 18:59:00,78.6,75.4,29.68,SSE,158,1.3,1.3,90,0.00,,,1.54,VWS V14.01,2013-03-23 08:59:00,
2013-03-23 19:04:00,78.6,75.8,29.68,SSE,158,3.1,3.1,91,0.00,,,1.54,VWS V14.01,2013-03-23 09:04:00,
2013-03-23 19:09:00,78.6,75.8,29.68,SSW,202,2.9,2.9,91,0.00,,,1.54,VWS V14.01,2013-03-23 09:09:00,
2013-03-23 19:14:00,78.4,75.6,29.68,SE,135,2.7,2.7,91,0.00,,,1.54,VWS V14.01,2013-03-23 09:14:00,
2013-03-23 19:20:00,78.4,75.6,29.68,ESE,112,0.0,0.0,91,0.00,,,1.54,VWS V14.01,2013-03-23 09:20:00,
2013-03-23 19:25:00,78.3,75.4,29.68,SE,135,2.2,2.5,91,0.00,,,1.54,VWS V14.01,2013-03-23 09:25:00,
2013-03-23 19:30:00,78.3,75.4,29.68,SE,135,0.0,0.9,91,0.00,,,1.54,VWS V14.01,2013-03-23 09:30:00,
2013-03-23 19:35:00,78.3,75.4,29.68,SSW,202,1.3,1.3,91,0.00,,,1.54,VWS V14.01,2013-03-23 09:35:00,
2013-03-23 19:40:00,78.3,75.4,29.68,SSW,202,0.0,0.0,91,0.00,,,1.54,VWS V14.01,2013-03-23 09:40:00,
2013-03-23 19:45:00,78.3,75.4,29.68,ESE,112,0.0,0.0,91,0.00,,,1.54,VWS V14.01,2013-03-23 09:45:00,
2013-03-23 19:50:00,78.1,75.2,29.68,WSW,248,4.0,4.0,91,0.00,,,1.54,VWS V14.01,2013-03-23 09:50:00,
2013-03-23 19:55:00,77.9,75.1,29.68,SSE,158,2.5,2.5,91,0.00,,,1.54,VWS V14.01,2013-03-23 09:55:00,
2013-03-23 20:00:00,78.1,75.6,29.68,SSE,158,0.0,0.0,92,0.00,,,1.54,VWS V14.01,2013-03-23 10:00:00,
2013-03-23 20:06:00,77.9,75.4,29.68,South,180,1.6,2.5,92,0.00,,,1.54,VWS V14.01,2013-03-23 10:06:00,
2013-03-23 20:11:00,78.1,75.6,29.68,SSW,202,0.0,0.0,92,0.00,,,1.54,VWS V14.01,2013-03-23 10:11:00,
2013-03-23 20:16:00,78.1,75.6,29.68,SSE,158,2.5,2.5,92,0.00,,,1.54,VWS V14.01,2013-03-23 10:16:00,
2013-03-23 20:21:00,77.9,75.4,29.68,SSE,158,3.8,3.8,92,0.00,,,1.54,VWS V14.01,2013-03-23 10:21:00,
2013-03-23 20:27:00,77.9,75.4,29.68,SSE,158,3.4,3.4,92,0.00,,,1.54,VWS V14.01,2013-03-23 10:27:00,
2013-03-23 20:32:00,78.1,75.6,29.68,SSW,202,1.6,1.6,92,0.00,,,1.54,VWS V14.01,2013-03-23 10:32:00,
2013-03-23 20:37:00,78.1,75.6,29.68,SW,225,4.3,4.3,92,0.00,,,1.54,VWS V14.01,2013-03-23 10:37:00,
2013-03-23 20:42:00,78.4,75.6,29.68,ESE,112,2.5,2.5,91,0.00,,,1.54,VWS V14.01,2013-03-23 10:42:00,
2013-03-23 20:47:00,78.3,75.4,29.68,South,180,2.2,2.2,91,0.00,,,1.54,VWS V14.01,2013-03-23 10:47:00,
2013-03-23 20:53:00,78.3,75.4,29.68,SSE,158,2.7,3.4,91,0.00,,,1.54,VWS V14.01,2013-03-23 10:53:00,
2013-03-23 20:58:00,78.1,75.2,29.68,SSE,158,0.0,0.0,91,0.00,,,1.54,VWS V14.01,2013-03-23 10:58:00,
2013-03-23 21:03:00,78.3,75.4,29.68,South,180,3.1,3.1,91,0.00,,,1.54,VWS V14.01,2013-03-23 11:03:00,
2013-03-23 21:08:00,78.3,75.4,29.68,South,180,3.1,3.1,91,0.00,,,1.54,VWS V14.01,2013-03-23 11:08:00,
2013-03-23 21:13:00,78.3,75.4,29.68,SSE,158,5.4,5.4,91,0.00,,,1.54,VWS V14.01,2013-03-23 11:13:00,
2013-03-23 21:18:00,78.3,75.4,29.68,East,90,2.2,2.9,91,0.00,,,1.54,VWS V14.01,2013-03-23 11:18:00,
2013-03-23 21:23:00,78.4,75.6,29.68,SSW,202,4.7,4.7,91,0.00,,,1.54,VWS V14.01,2013-03-23 11:23:00,
2013-03-23 21:28:00,78.4,75.3,29.68,SSW,202,5.6,5.6,90,0.00,,,1.54,VWS V14.01,2013-03-23 11:28:00,
2013-03-23 21:33:00,78.6,75.4,29.68,South,180,5.8,5.8,90,0.00,,,1.54,VWS V14.01,2013-03-23 11:33:00,
2013-03-23 21:38:00,78.4,75.3,29.68,South,180,5.8,5.8,90,0.00,,,1.54,VWS V14.01,2013-03-23 11:38:00,
2013-03-23 21:43:00,78.3,75.1,29.68,South,180,3.6,3.6,90,0.00,,,1.54,VWS V14.01,2013-03-23 11:43:00,
2013-03-23 21:49:00,78.3,75.1,29.68,ESE,112,3.4,3.4,90,0.00,,,1.54,VWS V14.01,2013-03-23 11:49:00,
2013-03-23 21:54:00,78.4,75.3,29.68,SSE,158,5.4,5.4,90,0.00,,,1.54,VWS V14.01,2013-03-23 11:54:00,
2013-03-23 21:59:00,78.3,75.1,29.68,South,180,0.9,0.9,90,0.00,,,1.54,VWS V14.01,2013-03-23 11:59:00,
2013-03-23 22:04:00,78.1,75.2,29.68,ESE,112,2.5,2.5,91,0.00,,,1.54,VWS V14.01,2013-03-23 12:04:00,
2013-03-23 22:09:00,78.1,75.2,29.68,East,90,0.9,0.9,91,0.00,,,1.54,VWS V14.01,2013-03-23 12:09:00,
2013-03-23 22:14:00,78.1,75.2,29.68,South,180,6.5,6.5,91,0.00,,,1.54,VWS V14.01,2013-03-23 12:14:00,
2013-03-23 22:19:00,78.1,75.2,29.68,SSW,202,0.9,4.7,91,0.00,,,1.54,VWS V14.01,2013-03-23 12:19:00,
2013-03-23 22:24:00,78.1,75.2,29.68,South,180,0.9,2.9,91,0.00,,,1.54,VWS V14.01,2013-03-23 12:24:00,
2013-03-23 22:29:00,78.3,75.1,29.68,SSE,158,8.7,8.7,90,0.00,,,1.54,VWS V14.01,2013-03-23 12:29:00,
2013-03-23 22:34:00,78.4,74.9,29.68,SE,135,0.9,6.5,89,0.00,,,1.54,VWS V14.01,2013-03-23 12:34:00,
2013-03-23 22:39:00,78.3,74.8,29.68,SSW,202,5.6,5.6,89,0.00,,,1.54,VWS V14.01,2013-03-23 12:39:00,
2013-03-23 22:45:00,78.3,74.8,29.68,ESE,112,2.9,2.9,89,0.00,,,1.54,VWS V14.01,2013-03-23 12:45:00,
2013-03-23 22:50:00,78.1,74.9,29.68,SSE,158,2.7,2.7,90,0.00,,,1.54,VWS V14.01,2013-03-23 12:50:00,
2013-03-23 22:55:00,77.9,74.7,29.68,South,180,2.5,2.9,90,0.00,,,1.54,VWS V14.01,2013-03-23 12:55:00,
2013-03-23 23:00:00,77.7,74.6,29.68,South,180,2.7,3.1,90,0.00,,,1.54,VWS V14.01,2013-03-23 13:00:00,
2013-03-23 23:05:00,77.7,74.6,29.68,SE,135,4.0,4.0,90,0.00,,,1.54,VWS V14.01,2013-03-23 13:05:00,
2013-03-23 23:10:00,77.7,74.6,29.68,South,180,1.3,1.3,90,0.00,,,1.54,VWS V14.01,2013-03-23 13:10:00,
2013-03-23 23:15:00,77.7,74.6,29.68,SSE,158,0.9,0.9,90,0.00,,,1.54,VWS V14.01,2013-03-23 13:15:00,
2013-03-23 23:20:00,77.9,74.7,29.68,SE,135,0.9,0.9,90,0.00,,,1.54,VWS V14.01,2013-03-23 13:20:00,
2013-03-23 23:25:00,77.9,74.7,29.68,SW,225,8.5,8.5,90,0.00,,,1.54,VWS V14.01,2013-03-23 13:25:00,
2013-03-23 23:30:00,78.4,74.9,29.68,SE,135,2.5,2.5,89,0.00,,,1.54,VWS V14.01,2013-03-23 13:30:00,
2013-03-23 23:36:00,78.1,74.6,29.68,SSE,158,1.3,1.6,89,0.00,,,1.54,VWS V14.01,2013-03-23 13:36:00,
2013-03-23 23:41:00,78.1,74.6,29.68,SE,135,2.0,2.5,89,0.00,,,1.54,VWS V14.01,2013-03-23 13:41:00,
2013-03-23 23:46:00,78.1,74.9,29.68,SE,135,1.3,2.2,90,0.00,,,1.54,VWS V14.01,2013-03-23 13:46:00,
2013-03-23 23:51:00,77.9,74.7,29.68,ESE,112,0.9,2.7,90,0.00,,,1.54,VWS V14.01,2013-03-23 13:51:00,
2013-03-23 23:56:00,77.7,74.6,29.68,SE,135,0.0,0.0,90,0.08,,,1.62,VWS V14.01,2013-03-23 13:56:00,